Time;durP1;ratioP1;P1;durP2;ratioP2;P2;SDS_P1;SDS_P2;PMS_P1;PMS_P2;Temp;Humidity;BMP_temperature;BMP_pressure;BME280_temperature;BME280_humidity;BME280_pressure;Samples;Min_cycle;Max_cycle;Signal;HPM_P1;HPM_P2
2022/02/14 00:00:06;;;;;;;7.50;6.40;;;5.70;99.90;;;;;;5078205;28;20482;-70
2022/02/14 00:02:33;;;;;;;15.90;6.77;;;5.70;99.90;;;;;;5078640;28;20485;-70
2022/02/14 00:05:03;;;;;;;9.00;6.90;;;5.70;99.90;;;;;;5079202;28;20453;-70
2022/02/14 00:07:29;;;;;;;7.00;6.30;;;5.70;99.90;;;;;;5078467;28;20461;-70
2022/02/14 00:09:56;;;;;;;8.60;6.20;;;5.70;99.90;;;;;;5079481;28;20454;-70
2022/02/14 00:12:23;;;;;;;14.07;6.70;;;5.60;99.90;;;;;;5080470;28;20458;-70
2022/02/14 00:14:49;;;;;;;8.73;6.13;;;5.60;99.90;;;;;;5078822;28;20466;-70
2022/02/14 00:17:16;;;;;;;12.40;6.83;;;5.60;99.90;;;;;;5077314;28;20769;-70
2022/02/14 00:19:49;;;;;;;8.53;6.33;;;5.70;99.90;;;;;;5076836;28;20493;-70
2022/02/14 00:22:21;;;;;;;6.97;6.07;;;5.70;99.90;;;;;;5077173;28;20473;-70
2022/02/14 00:24:49;;;;;;;6.93;6.00;;;5.70;99.90;;;;;;5076970;28;20529;-70
2022/02/14 00:27:15;;;;;;;10.00;6.20;;;5.80;99.90;;;;;;5077201;28;20481;-70
2022/02/14 00:29:42;;;;;;;12.47;6.33;;;5.80;99.90;;;;;;5076633;28;20793;-70
2022/02/14 00:32:09;;;;;;;8.03;6.30;;;5.80;99.90;;;;;;5076517;28;20469;-70
2022/02/14 00:34:35;;;;;;;8.83;6.60;;;5.80;99.90;;;;;;5077267;28;20446;-71
2022/02/14 00:37:04;;;;;;;6.77;6.07;;;5.70;99.90;;;;;;5078904;28;20462;-71
2022/02/14 00:39:33;;;;;;;9.33;6.50;;;5.70;99.90;;;;;;5079290;28;20490;-70
2022/02/14 00:42:00;;;;;;;9.37;6.10;;;5.70;99.90;;;;;;5076877;28;20462;-70
2022/02/14 00:44:27;;;;;;;6.67;5.97;;;5.80;99.90;;;;;;5076471;28;20465;-70
2022/02/14 00:46:53;;;;;;;10.43;5.73;;;5.70;99.90;;;;;;5076178;28;20462;-70
2022/02/14 00:49:20;;;;;;;10.90;6.17;;;5.70;99.90;;;;;;5076540;28;20454;-70
2022/02/14 00:51:47;;;;;;;7.63;6.30;;;5.70;99.90;;;;;;5076410;28;20472;-70
2022/02/14 00:54:13;;;;;;;6.83;6.13;;;5.70;99.90;;;;;;5076388;28;20791;-70
2022/02/14 00:56:41;;;;;;;11.43;6.20;;;5.70;99.90;;;;;;5076283;28;20462;-70
2022/02/14 00:59:08;;;;;;;10.87;6.20;;;5.80;99.90;;;;;;5076357;28;20493;-70
2022/02/14 01:01:35;;;;;;;7.77;6.40;;;5.70;99.90;;;;;;5076433;28;20515;-70
2022/02/14 01:04:01;;;;;;;8.60;6.00;;;5.80;99.90;;;;;;5076460;28;20874;-71
2022/02/14 01:06:28;;;;;;;11.23;5.23;;;5.80;99.90;;;;;;5076121;28;20465;-70
2022/02/14 01:08:55;;;;;;;8.80;5.80;;;5.70;99.90;;;;;;5076241;28;20484;-70
2022/02/14 01:11:22;;;;;;;9.00;6.27;;;5.70;99.90;;;;;;5075642;28;20455;-70
2022/02/14 01:13:52;;;;;;;8.00;5.57;;;5.70;99.90;;;;;;5075921;28;20454;-70
2022/02/14 01:16:18;;;;;;;7.37;6.03;;;5.80;99.90;;;;;;5076129;28;20454;-70
2022/02/14 01:18:45;;;;;;;10.53;6.80;;;5.80;99.90;;;;;;5075920;28;20474;-70
2022/02/14 01:21:12;;;;;;;8.00;5.57;;;5.70;99.90;;;;;;5075846;28;20469;-69
2022/02/14 01:23:39;;;;;;;9.70;5.13;;;5.70;99.90;;;;;;5075643;28;20818;-70
2022/02/14 01:26:05;;;;;;;6.60;5.33;;;5.70;99.90;;;;;;5075800;28;20484;-69
2022/02/14 01:28:32;;;;;;;11.00;6.10;;;5.70;99.90;;;;;;5074984;28;20450;-70
2022/02/14 01:31:02;;;;;;;13.30;5.77;;;5.70;99.90;;;;;;5074629;28;20776;-70
2022/02/14 01:33:28;;;;;;;8.83;5.93;;;5.70;99.90;;;;;;5075701;28;20458;-70
2022/02/14 01:35:55;;;;;;;7.07;5.47;;;5.60;99.90;;;;;;5075079;28;20909;-70
2022/02/14 01:38:22;;;;;;;7.30;5.50;;;5.60;99.90;;;;;;5075301;28;20469;-70
2022/02/14 01:40:48;;;;;;;8.27;5.67;;;5.60;99.90;;;;;;5075101;28;20930;-70
2022/02/14 01:43:15;;;;;;;8.60;5.30;;;5.60;99.90;;;;;;5075525;28;20454;-70
2022/02/14 01:45:42;;;;;;;8.70;5.43;;;5.50;99.90;;;;;;5075021;28;20450;-71
2022/02/14 01:48:11;;;;;;;6.17;5.30;;;5.60;99.90;;;;;;5074960;28;20541;-70
2022/02/14 01:50:38;;;;;;;8.40;5.90;;;5.50;99.90;;;;;;5075019;28;20446;-70
2022/02/14 01:53:05;;;;;;;8.23;5.13;;;5.50;99.90;;;;;;5075836;28;20458;-71
2022/02/14 01:55:33;;;;;;;7.37;5.90;;;5.50;99.90;;;;;;5075233;28;20454;-70
2022/02/14 01:58:01;;;;;;;9.60;6.03;;;5.50;99.90;;;;;;5074883;28;20461;-70
2022/02/14 02:00:29;;;;;;;11.70;6.27;;;5.40;99.90;;;;;;5075103;28;20482;-69
2022/02/14 02:02:56;;;;;;;8.00;5.53;;;5.40;99.90;;;;;;5076921;28;20466;-70
2022/02/14 02:05:25;;;;;;;6.50;5.70;;;5.40;99.90;;;;;;5078481;28;20531;-70
2022/02/14 02:07:52;;;;;;;6.77;5.80;;;5.40;99.90;;;;;;5076560;28;20471;-70
2022/02/14 02:10:19;;;;;;;10.50;6.20;;;5.30;99.90;;;;;;5075653;28;20454;-70
2022/02/14 02:12:51;;;;;;;9.73;5.57;;;5.30;99.90;;;;;;5075124;28;20800;-69
2022/02/14 02:15:18;;;;;;;9.93;5.73;;;5.30;99.90;;;;;;5074541;28;20465;-70
2022/02/14 02:17:44;;;;;;;6.60;5.07;;;5.20;99.90;;;;;;5075140;28;20473;-70
2022/02/14 02:20:14;;;;;;;8.80;5.33;;;5.20;99.90;;;;;;5074974;28;20814;-70
2022/02/14 02:22:43;;;;;;;8.17;5.37;;;5.20;99.90;;;;;;5075241;28;20516;-69
2022/02/14 02:25:11;;;;;;;11.53;5.83;;;5.10;99.90;;;;;;5075013;28;20455;-69
2022/02/14 02:27:39;;;;;;;6.73;5.80;;;5.10;99.90;;;;;;5075075;28;20471;-70
2022/02/14 02:30:08;;;;;;;5.83;4.87;;;5.10;99.90;;;;;;5074450;28;20504;-70
2022/02/14 02:32:35;;;;;;;8.33;4.73;;;5.10;99.90;;;;;;5074952;28;20528;-70
2022/02/14 02:35:03;;;;;;;6.30;4.93;;;5.10;99.90;;;;;;5074715;28;20474;-70
2022/02/14 02:37:31;;;;;;;10.10;5.07;;;5.10;99.90;;;;;;5074435;28;20935;-69
2022/02/14 02:39:58;;;;;;;8.33;5.13;;;5.10;99.90;;;;;;5074819;28;20488;-69
2022/02/14 02:42:26;;;;;;;8.40;5.40;;;5.10;99.90;;;;;;5074302;28;20462;-69
2022/02/14 02:44:54;;;;;;;6.73;4.63;;;5.00;99.90;;;;;;5074945;28;20458;-70
2022/02/14 02:47:23;;;;;;;7.73;5.67;;;5.00;99.90;;;;;;5074730;28;20469;-71
2022/02/14 02:49:51;;;;;;;7.77;5.77;;;4.90;99.90;;;;;;5076100;28;20461;-70
2022/02/14 02:52:19;;;;;;;8.20;4.93;;;4.90;99.90;;;;;;5077352;28;20454;-70
2022/02/14 02:54:47;;;;;;;7.10;5.33;;;4.90;99.90;;;;;;5076558;28;20458;-70
2022/02/14 02:57:14;;;;;;;8.53;5.40;;;4.90;99.90;;;;;;5074290;28;20454;-70
2022/02/14 02:59:43;;;;;;;5.33;4.53;;;4.90;99.90;;;;;;5074375;28;20591;-70
2022/02/14 03:02:10;;;;;;;7.60;4.80;;;4.90;99.90;;;;;;5074508;28;20462;-70
2022/02/14 03:04:37;;;;;;;7.00;4.70;;;4.80;99.90;;;;;;5074425;28;20454;-70
2022/02/14 03:07:04;;;;;;;7.33;4.90;;;4.80;99.90;;;;;;5074163;28;20458;-70
2022/02/14 03:09:31;;;;;;;7.47;4.50;;;4.80;99.90;;;;;;5074363;28;20768;-70
2022/02/14 03:11:58;;;;;;;6.00;4.50;;;4.80;99.90;;;;;;5074056;28;20469;-70
2022/02/14 03:14:25;;;;;;;7.77;5.27;;;4.80;99.90;;;;;;5074430;28;20465;-70
2022/02/14 03:16:54;;;;;;;7.93;4.77;;;4.80;99.90;;;;;;5074387;28;20795;-70
2022/02/14 03:19:21;;;;;;;6.10;4.70;;;4.80;99.90;;;;;;5074171;28;20482;-70
2022/02/14 03:21:47;;;;;;;6.70;4.53;;;4.70;99.90;;;;;;5073984;28;20489;-70
2022/02/14 03:24:14;;;;;;;6.70;4.37;;;4.70;99.90;;;;;;5074635;28;20454;-69
2022/02/14 03:26:41;;;;;;;6.83;4.63;;;4.80;99.90;;;;;;5074101;28;20462;-70
2022/02/14 03:29:08;;;;;;;4.70;4.23;;;4.80;99.90;;;;;;5073509;28;20481;-70
2022/02/14 03:31:34;;;;;;;9.73;5.00;;;4.80;99.90;;;;;;5074136;28;20439;-70
2022/02/14 03:34:03;;;;;;;6.17;4.10;;;4.80;99.90;;;;;;5074319;28;20787;-70
2022/02/14 03:36:30;;;;;;;5.53;3.93;;;4.80;99.90;;;;;;5074248;28;20523;-70
2022/02/14 03:38:57;;;;;;;4.67;4.27;;;4.80;99.90;;;;;;5073717;28;20459;-70
2022/02/14 03:41:24;;;;;;;6.10;4.00;;;4.80;99.90;;;;;;5074168;28;20560;-70
2022/02/14 03:43:50;;;;;;;5.97;4.27;;;4.80;99.90;;;;;;5074091;28;20459;-70
2022/02/14 03:46:17;;;;;;;5.30;4.60;;;4.80;99.90;;;;;;5073807;28;20458;-70
2022/02/14 03:48:44;;;;;;;9.20;4.30;;;4.80;99.90;;;;;;5074031;28;20462;-70
2022/02/14 03:51:12;;;;;;;6.07;4.60;;;4.80;99.90;;;;;;5073592;28;20450;-69
2022/02/14 03:53:39;;;;;;;4.90;4.33;;;4.80;99.90;;;;;;5074394;28;20458;-70
2022/02/14 03:56:07;;;;;;;6.17;4.70;;;4.80;99.90;;;;;;5077702;28;20852;-70
2022/02/14 03:58:34;;;;;;;5.73;4.20;;;4.80;99.90;;;;;;5077695;28;20519;-70
2022/02/14 04:01:01;;;;;;;5.90;4.30;;;4.80;99.90;;;;;;5077356;28;20490;-70
2022/02/14 04:03:27;;;;;;;8.57;4.87;;;4.90;99.90;;;;;;5077496;28;20778;-70
2022/02/14 04:05:56;;;;;;;7.93;5.00;;;4.90;99.90;;;;;;5077021;28;20930;-69
2022/02/14 04:08:25;;;;;;;6.27;4.07;;;4.90;99.90;;;;;;5077428;28;20458;-69
2022/02/14 04:10:53;;;;;;;8.50;4.87;;;4.90;99.90;;;;;;5077378;28;20450;-70
2022/02/14 04:13:20;;;;;;;5.77;3.87;;;4.90;99.90;;;;;;5077227;28;20458;-70
2022/02/14 04:15:47;;;;;;;4.73;3.80;;;4.90;99.90;;;;;;5077059;28;20463;-70
2022/02/14 04:18:14;;;;;;;6.70;4.57;;;4.80;99.90;;;;;;5077141;28;20525;-70
2022/02/14 04:20:40;;;;;;;4.90;4.40;;;4.90;99.90;;;;;;5076730;28;20490;-70
2022/02/14 04:23:07;;;;;;;5.40;3.80;;;5.00;99.90;;;;;;5077093;28;20803;-70
2022/02/14 04:25:35;;;;;;;11.10;4.83;;;4.90;99.90;;;;;;5077021;28;20450;-70
2022/02/14 04:28:02;;;;;;;8.10;4.23;;;4.90;99.90;;;;;;5076988;28;20453;-70
2022/02/14 04:30:31;;;;;;;5.93;4.67;;;5.00;99.90;;;;;;5076503;28;20497;-70
2022/02/14 04:32:59;;;;;;;8.90;4.80;;;4.90;99.90;;;;;;5076899;28;20825;-71
2022/02/14 04:35:27;;;;;;;8.77;4.00;;;5.00;99.90;;;;;;5076446;28;20516;-70
2022/02/14 04:37:58;;;;;;;6.23;4.17;;;5.00;99.90;;;;;;5076659;28;20968;-70
2022/02/14 04:40:26;;;;;;;6.80;4.40;;;5.00;99.90;;;;;;5076706;28;20466;-70
2022/02/14 04:42:54;;;;;;;6.53;4.73;;;5.00;99.90;;;;;;5076524;28;20775;-70
2022/02/14 04:45:21;;;;;;;9.47;4.30;;;5.00;99.90;;;;;;5076492;28;20473;-69
2022/02/14 04:47:48;;;;;;;5.77;4.90;;;5.00;99.90;;;;;;5076173;28;20938;-70
2022/02/14 04:50:14;;;;;;;5.07;4.40;;;5.00;99.90;;;;;;5076570;28;20461;-70
2022/02/14 04:52:41;;;;;;;6.57;4.17;;;5.10;99.90;;;;;;5076589;28;20468;-70
2022/02/14 04:55:09;;;;;;;6.23;4.03;;;5.00;99.90;;;;;;5076514;28;20799;-69
2022/02/14 04:57:36;;;;;;;7.23;4.63;;;5.10;99.90;;;;;;5076375;28;20758;-69
2022/02/14 05:00:06;;;;;;;8.53;4.53;;;5.10;99.90;;;;;;5076065;28;20477;-71
2022/02/14 05:02:32;;;;;;;5.23;4.73;;;5.00;99.90;;;;;;5076515;28;20465;-70
2022/02/14 05:04:59;;;;;;;5.27;4.40;;;5.10;99.90;;;;;;5076247;28;20468;-70
2022/02/14 05:07:26;;;;;;;5.60;4.50;;;5.10;99.90;;;;;;5076256;28;20876;-71
2022/02/14 05:09:52;;;;;;;6.00;4.33;;;5.10;99.90;;;;;;5076540;28;20511;-69
2022/02/14 05:12:19;;;;;;;9.80;4.10;;;5.10;99.90;;;;;;5078471;28;20783;-70
2022/02/14 05:14:49;;;;;;;5.20;4.00;;;5.10;99.90;;;;;;5076197;28;20454;-70
2022/02/14 05:17:18;;;;;;;6.53;4.07;;;5.10;99.90;;;;;;5076051;28;20454;-70
2022/02/14 05:19:44;;;;;;;8.13;4.50;;;5.10;99.90;;;;;;5075872;28;20474;-70
2022/02/14 05:22:11;;;;;;;6.73;4.27;;;5.10;99.90;;;;;;5075870;28;20531;-70
2022/02/14 05:24:38;;;;;;;5.97;4.07;;;5.10;99.90;;;;;;5075885;28;20770;-70
2022/02/14 05:27:05;;;;;;;8.07;4.23;;;5.00;99.90;;;;;;5075474;28;20911;-70
2022/02/14 05:29:32;;;;;;;6.10;4.53;;;5.00;99.90;;;;;;5075531;28;20482;-71
2022/02/14 05:31:59;;;;;;;5.70;4.73;;;5.10;99.90;;;;;;5075916;28;20759;-71
2022/02/14 05:34:27;;;;;;;5.17;4.13;;;5.10;99.90;;;;;;5075766;28;20481;-71
2022/02/14 05:36:53;;;;;;;5.73;4.43;;;5.10;99.90;;;;;;5075811;28;20462;-71
2022/02/14 05:39:20;;;;;;;5.37;3.73;;;5.10;99.90;;;;;;5075503;28;20469;-71
2022/02/14 05:41:47;;;;;;;4.70;4.13;;;5.10;99.90;;;;;;5075577;28;20788;-71
2022/02/14 05:44:17;;;;;;;7.20;4.23;;;5.10;99.90;;;;;;5075419;28;20926;-71
2022/02/14 05:46:43;;;;;;;5.97;4.77;;;5.00;99.90;;;;;;5075311;28;20534;-71
2022/02/14 05:49:10;;;;;;;9.20;5.23;;;5.00;99.90;;;;;;5075196;28;20937;-69
2022/02/14 05:51:38;;;;;;;10.00;6.40;;;5.00;99.90;;;;;;5075494;28;20450;-70
2022/02/14 05:54:05;;;;;;;7.57;5.60;;;4.90;99.90;;;;;;5075456;28;20486;-70
2022/02/14 05:56:32;;;;;;;8.10;5.30;;;4.80;99.90;;;;;;5075440;28;20482;-70
2022/02/14 05:58:59;;;;;;;6.77;5.60;;;4.90;99.90;;;;;;5075224;28;20513;-70
2022/02/14 06:01:26;;;;;;;9.97;5.87;;;4.80;99.90;;;;;;5075159;28;21004;-71
2022/02/14 06:03:53;;;;;;;9.80;6.40;;;4.80;99.90;;;;;;5075165;28;20519;-71
2022/02/14 06:06:20;;;;;;;7.17;5.80;;;4.80;99.90;;;;;;5075067;28;20454;-71
2022/02/14 06:08:48;;;;;;;13.73;6.30;;;4.70;99.90;;;;;;5075250;28;20454;-71
2022/02/14 06:11:14;;;;;;;11.30;6.80;;;4.70;99.90;;;;;;5075098;28;20450;-69
2022/02/14 06:13:41;;;;;;;10.43;6.07;;;4.70;99.90;;;;;;5075217;28;20470;-71
2022/02/14 06:16:08;;;;;;;8.30;7.43;;;4.60;99.90;;;;;;5074417;28;20466;-70
2022/02/14 06:18:34;;;;;;;7.23;6.00;;;4.60;99.90;;;;;;5075025;28;20455;-69
2022/02/14 06:21:01;;;;;;;11.83;5.70;;;4.60;99.90;;;;;;5074825;28;20539;-70
2022/02/14 06:23:30;;;;;;;8.10;5.67;;;4.60;99.90;;;;;;5075191;28;20450;-70
2022/02/14 06:25:58;;;;;;;9.50;6.57;;;4.50;99.90;;;;;;5074604;28;20767;-70
2022/02/14 06:28:24;;;;;;;11.90;7.20;;;4.50;99.90;;;;;;5074584;28;20454;-70
2022/02/14 06:30:51;;;;;;;8.83;5.93;;;4.50;99.90;;;;;;5074619;28;20763;-70
2022/02/14 06:33:18;;;;;;;7.87;6.10;;;4.50;99.90;;;;;;5074391;28;20468;-70
2022/02/14 06:35:44;;;;;;;7.50;6.03;;;4.50;99.90;;;;;;5074701;28;20796;-70
2022/02/14 06:38:11;;;;;;;10.80;6.07;;;4.50;99.90;;;;;;5074518;28;20465;-70
2022/02/14 06:40:38;;;;;;;8.87;5.80;;;4.50;99.90;;;;;;5074123;28;20486;-70
2022/02/14 06:43:06;;;;;;;7.77;6.50;;;4.50;99.90;;;;;;5074297;28;20465;-70
2022/02/14 06:45:33;;;;;;;10.53;6.10;;;4.60;99.90;;;;;;5074726;28;20458;-70
2022/02/14 06:47:59;;;;;;;7.60;5.97;;;4.60;99.90;;;;;;5074208;28;20458;-71
2022/02/14 06:50:26;;;;;;;7.27;6.40;;;4.60;99.90;;;;;;5074311;28;20450;-70
2022/02/14 06:52:53;;;;;;;12.67;6.70;;;4.60;99.90;;;;;;5075986;28;20775;-70
2022/02/14 06:55:19;;;;;;;9.70;6.20;;;4.60;99.90;;;;;;5074430;28;20479;-71
2022/02/14 06:57:46;;;;;;;10.47;7.40;;;4.60;99.90;;;;;;5074615;28;20936;-71
2022/02/14 07:00:15;;;;;;;9.27;6.67;;;4.70;99.90;;;;;;5074536;28;20486;-70
2022/02/14 07:02:42;;;;;;;9.47;6.07;;;4.70;99.90;;;;;;5074234;28;20523;-71
2022/02/14 07:05:11;;;;;;;12.20;7.10;;;4.70;99.90;;;;;;5074373;28;20523;-71
2022/02/14 07:07:38;;;;;;;8.33;5.90;;;4.70;99.90;;;;;;5074961;28;20493;-71
2022/02/14 07:10:06;;;;;;;10.13;6.57;;;4.70;99.90;;;;;;5074524;28;20458;-71
2022/02/14 07:12:32;;;;;;;8.40;6.47;;;4.70;99.90;;;;;;5073819;28;20458;-71
2022/02/14 07:15:00;;;;;;;8.80;6.57;;;4.80;99.90;;;;;;5075239;28;20462;-70
2022/02/14 07:17:28;;;;;;;8.90;5.97;;;4.90;99.90;;;;;;5078305;28;20532;-71
2022/02/14 07:19:54;;;;;;;11.10;6.60;;;4.90;99.90;;;;;;5078220;28;20454;-71
2022/02/14 07:22:21;;;;;;;9.00;5.60;;;4.90;99.90;;;;;;5075397;28;20973;-71
2022/02/14 07:24:48;;;;;;;10.03;7.00;;;4.90;99.90;;;;;;5074695;28;20461;-71
2022/02/14 07:27:15;;;;;;;10.27;6.30;;;4.90;99.90;;;;;;5074418;28;20466;-71
2022/02/14 07:29:42;;;;;;;9.53;6.27;;;5.00;99.90;;;;;;5076105;28;20568;-70
2022/02/14 07:32:09;;;;;;;11.27;6.80;;;5.00;99.90;;;;;;5078039;28;20465;-71
2022/02/14 07:34:37;;;;;;;12.37;7.70;;;5.00;99.90;;;;;;5078147;28;20755;-71
2022/02/14 07:37:05;;;;;;;14.57;7.10;;;5.00;99.90;;;;;;5077674;28;20792;-72
2022/02/14 07:39:32;;;;;;;7.60;6.50;;;5.00;99.90;;;;;;5078039;28;20940;-70
2022/02/14 07:41:59;;;;;;;9.97;7.00;;;5.10;99.90;;;;;;5077709;28;20485;-71
2022/02/14 07:44:28;;;;;;;9.40;6.77;;;5.10;99.90;;;;;;5077525;28;20454;-70
2022/02/14 07:46:55;;;;;;;13.57;7.40;;;5.20;99.90;;;;;;5077823;28;20464;-71
2022/02/14 07:49:23;;;;;;;9.53;6.53;;;5.20;99.90;;;;;;5078119;28;20466;-72
2022/02/14 07:51:52;;;;;;;12.17;6.70;;;5.30;99.90;;;;;;5078148;28;20447;-69
2022/02/14 07:54:19;;;;;;;8.03;6.00;;;5.30;99.90;;;;;;5077589;28;20945;-70
2022/02/14 07:56:45;;;;;;;8.20;6.23;;;5.30;99.90;;;;;;5077530;28;20512;-72
2022/02/14 07:59:12;;;;;;;14.63;7.70;;;5.40;99.90;;;;;;5077751;28;20469;-70
2022/02/14 08:01:40;;;;;;;7.33;6.00;;;5.40;99.90;;;;;;5077468;28;20881;-70
2022/02/14 08:04:07;;;;;;;8.10;6.20;;;5.40;99.90;;;;;;5077179;28;20454;-70
2022/02/14 08:06:35;;;;;;;7.90;5.23;;;5.40;99.90;;;;;;5077842;28;20462;-73
2022/02/14 08:09:04;;;;;;;7.70;5.93;;;5.50;99.90;;;;;;5077558;28;20519;-75
2022/02/14 08:11:31;;;;;;;9.27;6.50;;;5.50;99.90;;;;;;5077894;28;20575;-72
2022/02/14 08:13:58;;;;;;;9.50;5.60;;;5.50;99.90;;;;;;5077351;28;20865;-72
2022/02/14 08:16:24;;;;;;;7.40;5.67;;;5.50;99.90;;;;;;5077795;28;20476;-73
2022/02/14 08:18:51;;;;;;;12.23;6.10;;;5.60;99.90;;;;;;5077555;28;20450;-72
2022/02/14 08:21:18;;;;;;;13.10;6.27;;;5.70;99.90;;;;;;5076673;28;20539;-74
2022/02/14 08:23:44;;;;;;;10.07;5.60;;;5.70;99.90;;;;;;5077885;28;20469;-71
2022/02/14 08:26:13;;;;;;;8.03;5.70;;;5.80;99.90;;;;;;5076956;28;20454;-71
2022/02/14 08:28:39;;;;;;;8.93;5.60;;;5.80;99.90;;;;;;5077053;28;20454;-71
2022/02/14 08:31:07;;;;;;;8.10;5.97;;;5.90;99.90;;;;;;5076889;28;20784;-72
2022/02/14 08:33:34;;;;;;;8.97;4.80;;;6.00;99.90;;;;;;5076931;28;20497;-72
2022/02/14 08:36:01;;;;;;;11.43;5.60;;;6.00;99.90;;;;;;5077126;28;20515;-72
2022/02/14 08:38:27;;;;;;;5.60;5.00;;;6.10;99.90;;;;;;5077071;28;20450;-72
2022/02/14 08:40:54;;;;;;;17.03;5.27;;;6.20;99.90;;;;;;5076893;28;20478;-73
2022/02/14 08:43:22;;;;;;;14.03;6.03;;;6.20;99.90;;;;;;5078311;28;20481;-73
2022/02/14 08:45:49;;;;;;;10.40;5.40;;;6.30;99.90;;;;;;5080137;28;20462;-73
2022/02/14 08:48:17;;;;;;;9.33;5.83;;;6.30;99.90;;;;;;5080263;28;20454;-73
2022/02/14 08:50:44;;;;;;;8.77;5.63;;;6.40;99.90;;;;;;5077750;28;20469;-72
2022/02/14 08:53:11;;;;;;;7.83;5.00;;;6.40;99.90;;;;;;5077198;28;20903;-73
2022/02/14 08:55:38;;;;;;;8.27;5.03;;;6.50;99.90;;;;;;5077595;28;20935;-72
2022/02/14 08:58:05;;;;;;;9.00;5.07;;;6.50;99.90;;;;;;5077445;28;20482;-72
2022/02/14 09:00:33;;;;;;;8.80;5.10;;;6.60;99.90;;;;;;5077848;28;20469;-72
2022/02/14 09:03:00;;;;;;;8.33;5.93;;;6.70;99.90;;;;;;5079369;28;20535;-72
2022/02/14 09:05:27;;;;;;;10.33;4.47;;;6.80;99.90;;;;;;5078549;28;20927;-74
2022/02/14 09:07:54;;;;;;;7.60;4.60;;;6.90;99.90;;;;;;5081339;28;20488;-73
2022/02/14 09:10:21;;;;;;;10.77;4.67;;;7.00;99.90;;;;;;5078092;28;20468;-72
2022/02/14 09:12:48;;;;;;;4.73;4.00;;;7.10;99.90;;;;;;5077518;28;20805;-72
2022/02/14 09:15:15;;;;;;;6.90;4.27;;;7.20;99.90;;;;;;5080028;28;20473;-72
2022/02/14 09:17:43;;;;;;;5.57;3.70;;;7.30;99.90;;;;;;5080399;28;20469;-72
2022/02/14 09:20:11;;;;;;;8.60;4.30;;;7.40;99.90;;;;;;5080803;28;20461;-73
2022/02/14 09:22:38;;;;;;;4.53;3.70;;;7.50;99.90;;;;;;5080509;28;20513;-72
2022/02/14 09:25:08;;;;;;;8.93;3.90;;;7.60;99.90;;;;;;5081102;28;20606;-72
2022/02/14 09:27:35;;;;;;;5.13;3.23;;;7.60;99.90;;;;;;5079849;28;20901;-72
2022/02/14 09:30:02;;;;;;;9.13;3.43;;;7.70;99.90;;;;;;5078016;28;20478;-72
2022/02/14 09:32:29;;;;;;;5.17;3.50;;;7.80;99.90;;;;;;5077935;28;20453;-73
2022/02/14 09:34:57;;;;;;;6.33;3.97;;;7.90;99.90;;;;;;5077018;28;20916;-73
2022/02/14 09:37:24;;;;;;;8.73;4.07;;;7.90;99.90;;;;;;5076635;28;20798;-73
2022/02/14 09:39:51;;;;;;;6.30;3.70;;;8.00;99.90;;;;;;5076287;28;20594;-73
2022/02/14 09:42:18;;;;;;;4.57;3.83;;;8.10;99.90;;;;;;5076688;28;20478;-74
2022/02/14 09:44:46;;;;;;;4.17;3.60;;;8.20;99.90;;;;;;5076568;28;20450;-73
2022/02/14 09:47:13;;;;;;;4.70;3.87;;;8.30;99.90;;;;;;5076323;28;20496;-74
2022/02/14 09:49:42;;;;;;;4.10;3.70;;;8.30;99.90;;;;;;5076060;28;20468;-73
2022/02/14 09:52:11;;;;;;;6.40;3.23;;;8.30;99.90;;;;;;5075076;28;20457;-73
2022/02/14 09:54:38;;;;;;;5.63;3.37;;;8.50;99.90;;;;;;5075595;28;20486;-74
2022/02/14 09:57:05;;;;;;;7.40;3.53;;;8.50;99.90;;;;;;5075333;28;20467;-73
2022/02/14 09:59:32;;;;;;;11.47;4.40;;;8.60;99.90;;;;;;5075544;28;20473;-74
2022/02/14 10:02:02;;;;;;;6.03;3.53;;;8.60;99.90;;;;;;5074973;28;20478;-72
2022/02/14 10:04:29;;;;;;;5.57;3.57;;;8.70;99.90;;;;;;5075404;28;20454;-73
2022/02/14 10:07:11;;;;;;;6.10;4.30;;;8.70;99.90;;;;;;5075226;28;20458;-73
2022/02/14 10:09:38;;;;;;;6.77;4.83;;;8.80;99.90;;;;;;5074809;28;20446;-72
2022/02/14 10:12:09;;;;;;;5.13;3.53;;;8.90;99.90;;;;;;5075210;28;20540;-73
2022/02/14 10:14:37;;;;;;;5.87;3.27;;;9.00;99.90;;;;;;5075283;28;20927;-73
2022/02/14 10:17:09;;;;;;;5.53;4.03;;;9.10;99.90;;;;;;5076056;28;20942;-73
2022/02/14 10:19:39;;;;;;;8.30;3.47;;;9.10;99.90;;;;;;5076403;28;20457;-73
2022/02/14 10:22:10;;;;;;;6.00;3.90;;;9.20;99.90;;;;;;5076531;28;20795;-73
2022/02/14 10:24:41;;;;;;;5.97;3.33;;;9.30;99.90;;;;;;5075564;28;20472;-73
2022/02/14 10:27:08;;;;;;;7.17;3.90;;;9.30;99.90;;;;;;5075349;28;20458;-73
2022/02/14 10:29:35;;;;;;;5.53;3.40;;;9.40;99.90;;;;;;5075454;28;20490;-73
2022/02/14 10:32:07;;;;;;;4.37;3.20;;;9.50;99.90;;;;;;5075653;28;20469;-73
2022/02/14 10:34:37;;;;;;;5.43;3.63;;;9.60;99.90;;;;;;5075267;28;20458;-74
2022/02/14 10:37:05;;;;;;;8.20;3.77;;;9.70;99.90;;;;;;5075736;28;20806;-74
2022/02/14 10:39:34;;;;;;;7.27;3.23;;;9.70;99.90;;;;;;5077454;28;20450;-74
2022/02/14 10:42:02;;;;;;;6.40;3.50;;;9.80;99.90;;;;;;5077266;28;20470;-73
2022/02/14 10:47:19;;;;;;;4.73;3.30;;;9.90;99.90;;;;;;5075809;28;20426;-73
2022/02/14 10:49:57;;;;;;;3.90;2.93;;;10.00;99.90;;;;;;5075171;28;20453;-72
2022/02/14 10:52:24;;;;;;;5.47;3.03;;;10.00;99.90;;;;;;5074953;28;20442;-73
2022/02/14 10:54:54;;;;;;;5.57;3.70;;;10.10;99.90;;;;;;5075491;28;20465;-72
2022/02/14 10:57:26;;;;;;;4.93;3.33;;;10.20;99.90;;;;;;5074887;28;20778;-73
2022/02/14 10:59:57;;;;;;;5.47;3.53;;;10.30;99.90;;;;;;5074193;28;20496;-73
2022/02/14 11:02:23;;;;;;;9.53;4.27;;;10.40;99.90;;;;;;5074753;28;20485;-73
2022/02/14 11:04:50;;;;;;;3.70;3.00;;;10.50;99.90;;;;;;5078728;28;20469;-74
2022/02/14 11:07:17;;;;;;;5.27;3.57;;;10.50;99.90;;;;;;5079537;28;20465;-74
2022/02/14 11:09:46;;;;;;;4.50;3.20;;;10.50;99.90;;;;;;5079127;28;20744;-72
2022/02/14 11:12:18;;;;;;;3.67;3.27;;;10.50;99.90;;;;;;5079133;28;20519;-75
2022/02/14 11:14:46;;;;;;;3.43;2.70;;;10.50;99.90;;;;;;5079556;28;20507;-73
2022/02/14 11:17:15;;;;;;;5.77;3.37;;;10.60;99.90;;;;;;5079175;28;20462;-73
2022/02/14 11:19:45;;;;;;;5.43;4.07;;;10.70;99.90;;;;;;5079737;28;20461;-73
2022/02/14 11:22:13;;;;;;;4.47;3.33;;;10.70;99.90;;;;;;5080064;28;20500;-73
2022/02/14 11:24:42;;;;;;;8.13;3.43;;;10.70;99.90;;;;;;5080472;28;20541;-73
2022/02/14 11:27:15;;;;;;;5.67;3.37;;;10.70;99.90;;;;;;5080006;28;20537;-74
2022/02/14 11:29:51;;;;;;;6.50;3.17;;;10.70;99.90;;;;;;5078860;28;20513;-74
2022/02/14 11:32:23;;;;;;;6.10;3.20;;;10.80;99.90;;;;;;5079464;28;20511;-74
2022/02/14 11:34:56;;;;;;;9.43;3.90;;;10.90;99.90;;;;;;5079624;28;20443;-74
2022/02/14 11:37:23;;;;;;;4.30;3.87;;;11.00;99.90;;;;;;5082419;28;20484;-76
2022/02/14 11:39:50;;;;;;;4.73;3.30;;;11.10;99.90;;;;;;5082379;28;20458;-74
2022/02/14 11:42:17;;;;;;;4.50;2.80;;;11.00;99.90;;;;;;5080462;28;20482;-74
2022/02/14 11:44:46;;;;;;;7.20;3.63;;;11.10;99.90;;;;;;5080015;28;20457;-75
2022/02/14 11:47:19;;;;;;;5.13;3.70;;;11.20;99.90;;;;;;5079692;28;20459;-74
2022/02/14 11:50:05;;;;;;;4.30;3.80;;;11.40;99.90;;;;;;5079269;28;20543;-75
2022/02/14 11:52:35;;;;;;;4.90;3.60;;;11.40;99.90;;;;;;5079611;28;20458;-75
2022/02/14 11:55:04;;;;;;;4.10;3.40;;;11.50;99.90;;;;;;5079003;28;20461;-74
2022/02/14 11:57:35;;;;;;;4.90;3.20;;;11.60;99.90;;;;;;5079937;28;20469;-74
2022/02/14 12:00:27;;;;;;;4.83;2.90;;;11.70;99.90;;;;;;5080275;28;20446;-74
2022/02/14 12:03:18;;;;;;;8.13;3.23;;;11.90;99.90;;;;;;5078409;28;20471;-73
2022/02/14 12:05:46;;;;;;;4.60;3.53;;;11.90;99.90;;;;;;5070638;28;20457;-74
2022/02/14 12:08:14;;;;;;;6.53;3.30;;;11.90;99.90;;;;;;5077939;28;20484;-74
2022/02/14 12:10:49;;;;;;;7.50;3.80;;;12.00;99.90;;;;;;5077903;28;20795;-74
2022/02/14 12:13:23;;;;;;;4.00;3.43;;;12.10;99.90;;;;;;5077746;28;20434;-74
2022/02/14 12:21:27;;;;;;;3.20;2.90;;;14.40;99.90;;;;;;5077584;28;20523;-74
2022/02/14 12:23:56;;;;;;;4.00;3.20;;;15.20;96.30;;;;;;5078548;28;20581;-75
2022/02/14 12:26:27;;;;;;;4.07;3.13;;;15.80;94.10;;;;;;5077437;28;20833;-75
2022/02/14 12:31:42;;;;;;;4.37;3.23;;;16.40;88.90;;;;;;5077748;28;20434;-73
2022/02/14 12:34:10;;;;;;;4.83;3.20;;;16.50;83.20;;;;;;5077334;28;20430;-73
2022/02/14 12:36:36;;;;;;;3.63;3.00;;;16.70;80.80;;;;;;5078055;28;20458;-75
2022/02/14 12:39:03;;;;;;;6.70;2.97;;;17.20;77.40;;;;;;5078120;28;20454;-74
2022/02/14 12:41:30;;;;;;;4.10;3.07;;;17.60;73.90;;;;;;5078390;28;20545;-75
2022/02/14 12:43:58;;;;;;;3.50;3.20;;;17.80;71.20;;;;;;5078236;28;20582;-74
2022/02/14 12:46:25;;;;;;;3.57;3.07;;;17.70;67.90;;;;;;5077869;28;20458;-73
2022/02/14 12:48:57;;;;;;;8.33;2.90;;;17.60;67.10;;;;;;5077683;28;20980;-72
2022/02/14 12:51:26;;;;;;;4.80;3.47;;;17.40;65.80;;;;;;5078055;28;20439;-72
2022/02/14 12:53:55;;;;;;;5.37;3.57;;;17.50;66.20;;;;;;5078650;28;20450;-72
2022/02/14 12:56:24;;;;;;;4.33;3.40;;;17.50;64.60;;;;;;5078333;28;20458;-74
2022/02/14 12:58:55;;;;;;;4.00;3.03;;;17.50;63.70;;;;;;5078336;28;20450;-74
2022/02/14 13:01:23;;;;;;;5.20;2.83;;;17.40;64.10;;;;;;5078645;28;20515;-74
2022/02/14 13:03:57;;;;;;;2.93;2.50;;;17.50;63.10;;;;;;5077424;28;20556;-74
2022/02/14 13:06:40;;;;;;;2.97;2.70;;;17.60;63.30;;;;;;5077839;28;20442;-73